YCC weather

Cornwall Regional Airport
Cornwall, Ontario, Canada

Public forecast

Using degrees Celsius for public forecast. Weather courtesy of forecast.io.

Closest aviation weather report (METAR) to Cornwall Regional Airport

Closest report is Massena International Richards Field, 15.2 nm (28.2 km) SW. Retrieved 2020/04/05 13:53 UTC (33 minutes ago):

KMSS 051353Z AUTO 23008KT 10SM BKN031 OVC041 09/05 A3001 RMK AO2 SLP166 T00890050

Closest aviation forecast (TAF) to Cornwall Regional Airport

Closest forecast is Massena International Richards Field, 15.2 nm (28.2 km) SW. Retrieved 2020/04/05 12:24 UTC (2 hours ago):

TAF KMSS 051123Z 0512/0612 22006KT P6SM VCSH OVC040 FM051400 24006KT P6SM VCSH BKN022 FM052200 26007KT P6SM BKN030 FM060000 30007KT P6SM BKN060